sensor_id;sensor_type;location;lat;lon;timestamp;P1;durP1;ratioP1;P2;durP2;ratioP2
3891;SDS011;1961;48.194;16.370;2023-04-25T00:00:35;43.90;;;5.82;;
3891;SDS011;1961;48.194;16.370;2023-04-25T00:03:01;40.67;;;5.10;;
3891;SDS011;1961;48.194;16.370;2023-04-25T00:05:28;41.70;;;5.67;;
3891;SDS011;1961;48.194;16.370;2023-04-25T00:07:54;41.77;;;5.40;;
3891;SDS011;1961;48.194;16.370;2023-04-25T00:10:21;41.27;;;5.37;;
3891;SDS011;1961;48.194;16.370;2023-04-25T00:12:47;41.97;;;5.35;;
3891;SDS011;1961;48.194;16.370;2023-04-25T00:15:14;40.90;;;5.40;;
3891;SDS011;1961;48.194;16.370;2023-04-25T00:17:41;41.30;;;5.13;;
3891;SDS011;1961;48.194;16.370;2023-04-25T00:20:08;41.87;;;5.60;;
3891;SDS011;1961;48.194;16.370;2023-04-25T00:22:34;41.25;;;5.63;;
3891;SDS011;1961;48.194;16.370;2023-04-25T00:25:03;42.00;;;5.43;;
3891;SDS011;1961;48.194;16.370;2023-04-25T00:27:29;41.90;;;5.30;;
3891;SDS011;1961;48.194;16.370;2023-04-25T00:29:55;41.83;;;5.00;;
3891;SDS011;1961;48.194;16.370;2023-04-25T00:32:21;41.17;;;5.30;;
3891;SDS011;1961;48.194;16.370;2023-04-25T00:34:48;41.55;;;6.03;;
3891;SDS011;1961;48.194;16.370;2023-04-25T00:37:14;41.60;;;5.57;;
3891;SDS011;1961;48.194;16.370;2023-04-25T00:39:40;41.65;;;5.40;;
3891;SDS011;1961;48.194;16.370;2023-04-25T00:42:06;42.55;;;5.70;;
3891;SDS011;1961;48.194;16.370;2023-04-25T00:44:33;42.28;;;5.68;;
3891;SDS011;1961;48.194;16.370;2023-04-25T00:47:01;41.05;;;5.32;;
3891;SDS011;1961;48.194;16.370;2023-04-25T00:49:28;42.40;;;6.40;;
3891;SDS011;1961;48.194;16.370;2023-04-25T00:51:54;42.43;;;6.00;;
3891;SDS011;1961;48.194;16.370;2023-04-25T00:54:21;45.97;;;5.63;;
3891;SDS011;1961;48.194;16.370;2023-04-25T00:56:48;42.55;;;5.70;;
3891;SDS011;1961;48.194;16.370;2023-04-25T00:59:14;42.08;;;5.75;;
3891;SDS011;1961;48.194;16.370;2023-04-25T01:01:41;41.60;;;5.80;;
3891;SDS011;1961;48.194;16.370;2023-04-25T01:04:08;42.22;;;6.13;;
3891;SDS011;1961;48.194;16.370;2023-04-25T01:06:35;42.00;;;6.20;;
3891;SDS011;1961;48.194;16.370;2023-04-25T01:09:02;42.17;;;5.68;;
3891;SDS011;1961;48.194;16.370;2023-04-25T01:11:28;42.28;;;6.32;;
3891;SDS011;1961;48.194;16.370;2023-04-25T01:13:55;42.75;;;6.00;;
3891;SDS011;1961;48.194;16.370;2023-04-25T01:16:21;46.58;;;6.50;;
3891;SDS011;1961;48.194;16.370;2023-04-25T01:18:50;42.00;;;5.75;;
3891;SDS011;1961;48.194;16.370;2023-04-25T01:21:17;41.70;;;5.75;;
3891;SDS011;1961;48.194;16.370;2023-04-25T01:23:43;42.08;;;5.85;;
3891;SDS011;1961;48.194;16.370;2023-04-25T01:26:10;42.50;;;5.80;;
3891;SDS011;1961;48.194;16.370;2023-04-25T01:28:37;41.72;;;5.80;;
3891;SDS011;1961;48.194;16.370;2023-04-25T01:31:06;44.33;;;6.25;;
3891;SDS011;1961;48.194;16.370;2023-04-25T01:33:33;41.17;;;5.53;;
3891;SDS011;1961;48.194;16.370;2023-04-25T01:35:59;42.47;;;6.03;;
3891;SDS011;1961;48.194;16.370;2023-04-25T01:38:25;44.63;;;6.13;;
3891;SDS011;1961;48.194;16.370;2023-04-25T01:40:51;43.50;;;6.32;;
3891;SDS011;1961;48.194;16.370;2023-04-25T01:43:19;42.28;;;6.00;;
3891;SDS011;1961;48.194;16.370;2023-04-25T01:45:45;43.55;;;5.95;;
3891;SDS011;1961;48.194;16.370;2023-04-25T01:48:13;44.03;;;6.85;;
3891;SDS011;1961;48.194;16.370;2023-04-25T01:50:40;44.10;;;6.65;;
3891;SDS011;1961;48.194;16.370;2023-04-25T01:53:06;41.60;;;5.85;;
3891;SDS011;1961;48.194;16.370;2023-04-25T01:55:34;42.42;;;5.90;;
3891;SDS011;1961;48.194;16.370;2023-04-25T01:58:02;41.95;;;5.80;;
3891;SDS011;1961;48.194;16.370;2023-04-25T02:00:28;42.60;;;6.45;;
3891;SDS011;1961;48.194;16.370;2023-04-25T02:02:57;41.55;;;5.50;;
3891;SDS011;1961;48.194;16.370;2023-04-25T02:05:24;43.05;;;6.00;;
3891;SDS011;1961;48.194;16.370;2023-04-25T02:07:50;42.63;;;6.00;;
3891;SDS011;1961;48.194;16.370;2023-04-25T02:10:16;41.67;;;5.90;;
3891;SDS011;1961;48.194;16.370;2023-04-25T02:12:43;41.50;;;5.85;;
3891;SDS011;1961;48.194;16.370;2023-04-25T02:15:09;42.75;;;6.03;;
3891;SDS011;1961;48.194;16.370;2023-04-25T02:17:35;42.60;;;5.80;;
3891;SDS011;1961;48.194;16.370;2023-04-25T02:20:02;43.22;;;6.75;;
3891;SDS011;1961;48.194;16.370;2023-04-25T02:22:29;42.15;;;6.05;;
3891;SDS011;1961;48.194;16.370;2023-04-25T02:24:55;43.63;;;6.43;;
3891;SDS011;1961;48.194;16.370;2023-04-25T02:27:21;42.67;;;6.15;;
3891;SDS011;1961;48.194;16.370;2023-04-25T02:29:48;41.88;;;6.25;;
3891;SDS011;1961;48.194;16.370;2023-04-25T02:32:15;43.30;;;6.53;;
3891;SDS011;1961;48.194;16.370;2023-04-25T02:34:41;42.22;;;6.50;;
3891;SDS011;1961;48.194;16.370;2023-04-25T02:37:07;42.33;;;6.35;;
3891;SDS011;1961;48.194;16.370;2023-04-25T02:39:33;41.65;;;6.43;;
3891;SDS011;1961;48.194;16.370;2023-04-25T02:41:59;42.75;;;6.90;;
3891;SDS011;1961;48.194;16.370;2023-04-25T02:44:26;42.28;;;6.25;;
3891;SDS011;1961;48.194;16.370;2023-04-25T02:46:52;44.28;;;7.00;;
3891;SDS011;1961;48.194;16.370;2023-04-25T02:49:18;41.80;;;5.85;;
3891;SDS011;1961;48.194;16.370;2023-04-25T02:51:44;42.05;;;6.20;;
3891;SDS011;1961;48.194;16.370;2023-04-25T02:54:10;42.72;;;6.68;;
3891;SDS011;1961;48.194;16.370;2023-04-25T02:56:37;42.05;;;6.10;;
3891;SDS011;1961;48.194;16.370;2023-04-25T02:59:03;42.50;;;6.18;;
3891;SDS011;1961;48.194;16.370;2023-04-25T03:01:29;42.75;;;6.50;;
3891;SDS011;1961;48.194;16.370;2023-04-25T03:03:55;41.78;;;6.20;;
3891;SDS011;1961;48.194;16.370;2023-04-25T03:06:21;42.70;;;6.97;;
3891;SDS011;1961;48.194;16.370;2023-04-25T03:08:48;43.38;;;6.65;;
3891;SDS011;1961;48.194;16.370;2023-04-25T03:11:14;42.83;;;6.57;;
3891;SDS011;1961;48.194;16.370;2023-04-25T03:13:40;42.72;;;6.30;;
3891;SDS011;1961;48.194;16.370;2023-04-25T03:16:06;44.35;;;7.00;;
3891;SDS011;1961;48.194;16.370;2023-04-25T03:18:32;42.33;;;6.35;;
3891;SDS011;1961;48.194;16.370;2023-04-25T03:20:59;47.20;;;6.57;;
3891;SDS011;1961;48.194;16.370;2023-04-25T03:23:25;41.90;;;5.90;;
3891;SDS011;1961;48.194;16.370;2023-04-25T03:25:51;43.15;;;6.78;;
3891;SDS011;1961;48.194;16.370;2023-04-25T03:28:17;45.17;;;7.13;;
3891;SDS011;1961;48.194;16.370;2023-04-25T03:30:43;43.25;;;6.00;;
3891;SDS011;1961;48.194;16.370;2023-04-25T03:33:09;43.63;;;6.70;;
3891;SDS011;1961;48.194;16.370;2023-04-25T03:35:36;45.72;;;6.72;;
3891;SDS011;1961;48.194;16.370;2023-04-25T03:38:02;41.85;;;6.55;;
3891;SDS011;1961;48.194;16.370;2023-04-25T03:40:28;41.97;;;6.40;;
3891;SDS011;1961;48.194;16.370;2023-04-25T03:42:54;43.58;;;5.95;;
3891;SDS011;1961;48.194;16.370;2023-04-25T03:45:20;42.67;;;6.63;;
3891;SDS011;1961;48.194;16.370;2023-04-25T03:47:47;41.90;;;6.43;;
3891;SDS011;1961;48.194;16.370;2023-04-25T03:50:13;43.25;;;6.90;;
3891;SDS011;1961;48.194;16.370;2023-04-25T03:52:39;44.58;;;6.97;;
3891;SDS011;1961;48.194;16.370;2023-04-25T03:55:06;42.40;;;6.60;;
3891;SDS011;1961;48.194;16.370;2023-04-25T03:57:32;42.55;;;6.72;;
3891;SDS011;1961;48.194;16.370;2023-04-25T03:59:58;42.38;;;6.22;;
3891;SDS011;1961;48.194;16.370;2023-04-25T04:02:24;42.63;;;6.13;;
3891;SDS011;1961;48.194;16.370;2023-04-25T04:04:50;42.45;;;6.53;;
3891;SDS011;1961;48.194;16.370;2023-04-25T04:07:17;42.65;;;7.10;;
3891;SDS011;1961;48.194;16.370;2023-04-25T04:09:43;43.88;;;7.07;;
3891;SDS011;1961;48.194;16.370;2023-04-25T04:12:09;43.42;;;7.00;;
3891;SDS011;1961;48.194;16.370;2023-04-25T04:14:35;44.45;;;7.22;;
3891;SDS011;1961;48.194;16.370;2023-04-25T04:17:01;43.03;;;6.60;;
3891;SDS011;1961;48.194;16.370;2023-04-25T04:19:28;42.03;;;6.25;;
3891;SDS011;1961;48.194;16.370;2023-04-25T04:21:54;42.65;;;6.47;;
3891;SDS011;1961;48.194;16.370;2023-04-25T04:24:20;43.90;;;7.80;;
3891;SDS011;1961;48.194;16.370;2023-04-25T04:26:46;42.03;;;6.50;;
3891;SDS011;1961;48.194;16.370;2023-04-25T04:29:12;43.25;;;6.88;;
3891;SDS011;1961;48.194;16.370;2023-04-25T04:31:49;43.28;;;7.10;;
3891;SDS011;1961;48.194;16.370;2023-04-25T04:34:16;42.45;;;6.63;;
3891;SDS011;1961;48.194;16.370;2023-04-25T04:36:44;42.50;;;6.95;;
3891;SDS011;1961;48.194;16.370;2023-04-25T04:39:14;44.53;;;7.00;;
3891;SDS011;1961;48.194;16.370;2023-04-25T04:41:40;45.42;;;7.22;;
3891;SDS011;1961;48.194;16.370;2023-04-25T04:44:08;43.72;;;6.72;;
3891;SDS011;1961;48.194;16.370;2023-04-25T04:46:36;43.95;;;6.45;;
3891;SDS011;1961;48.194;16.370;2023-04-25T04:49:10;43.22;;;7.00;;
3891;SDS011;1961;48.194;16.370;2023-04-25T04:51:37;44.13;;;7.15;;
3891;SDS011;1961;48.194;16.370;2023-04-25T04:54:06;42.70;;;6.40;;
3891;SDS011;1961;48.194;16.370;2023-04-25T04:56:32;44.05;;;6.93;;
3891;SDS011;1961;48.194;16.370;2023-04-25T04:58:58;44.63;;;7.55;;
3891;SDS011;1961;48.194;16.370;2023-04-25T05:01:25;43.10;;;6.93;;
3891;SDS011;1961;48.194;16.370;2023-04-25T05:03:52;42.72;;;6.90;;
3891;SDS011;1961;48.194;16.370;2023-04-25T05:06:18;45.83;;;6.97;;
3891;SDS011;1961;48.194;16.370;2023-04-25T05:08:45;44.25;;;7.47;;
3891;SDS011;1961;48.194;16.370;2023-04-25T05:11:11;43.72;;;7.32;;
3891;SDS011;1961;48.194;16.370;2023-04-25T05:13:37;44.00;;;7.03;;
3891;SDS011;1961;48.194;16.370;2023-04-25T05:16:04;42.95;;;7.40;;
3891;SDS011;1961;48.194;16.370;2023-04-25T05:18:30;43.75;;;6.97;;
3891;SDS011;1961;48.194;16.370;2023-04-25T05:20:56;43.22;;;7.13;;
3891;SDS011;1961;48.194;16.370;2023-04-25T05:23:22;43.22;;;7.60;;
3891;SDS011;1961;48.194;16.370;2023-04-25T05:25:48;44.35;;;7.65;;
3891;SDS011;1961;48.194;16.370;2023-04-25T05:28:14;43.97;;;7.65;;
3891;SDS011;1961;48.194;16.370;2023-04-25T05:30:41;44.80;;;7.40;;
3891;SDS011;1961;48.194;16.370;2023-04-25T05:33:07;47.55;;;7.45;;
3891;SDS011;1961;48.194;16.370;2023-04-25T05:35:34;44.75;;;8.00;;
3891;SDS011;1961;48.194;16.370;2023-04-25T05:38:00;42.75;;;7.35;;
3891;SDS011;1961;48.194;16.370;2023-04-25T05:40:26;45.83;;;8.15;;
3891;SDS011;1961;48.194;16.370;2023-04-25T05:42:52;48.88;;;8.70;;
3891;SDS011;1961;48.194;16.370;2023-04-25T05:45:19;45.65;;;7.32;;
3891;SDS011;1961;48.194;16.370;2023-04-25T05:47:45;46.35;;;7.70;;
3891;SDS011;1961;48.194;16.370;2023-04-25T05:50:11;49.78;;;7.55;;
3891;SDS011;1961;48.194;16.370;2023-04-25T05:52:38;43.80;;;8.23;;
3891;SDS011;1961;48.194;16.370;2023-04-25T05:55:04;44.75;;;7.95;;
3891;SDS011;1961;48.194;16.370;2023-04-25T05:57:30;44.72;;;7.15;;
3891;SDS011;1961;48.194;16.370;2023-04-25T05:59:57;48.13;;;7.25;;
3891;SDS011;1961;48.194;16.370;2023-04-25T06:02:23;44.75;;;7.20;;
3891;SDS011;1961;48.194;16.370;2023-04-25T06:04:49;43.88;;;7.38;;
3891;SDS011;1961;48.194;16.370;2023-04-25T06:07:16;44.25;;;7.57;;
3891;SDS011;1961;48.194;16.370;2023-04-25T06:09:43;43.20;;;7.40;;
3891;SDS011;1961;48.194;16.370;2023-04-25T06:12:09;44.70;;;7.78;;
3891;SDS011;1961;48.194;16.370;2023-04-25T06:14:36;44.00;;;7.35;;
3891;SDS011;1961;48.194;16.370;2023-04-25T06:17:02;43.92;;;7.20;;
3891;SDS011;1961;48.194;16.370;2023-04-25T06:19:33;44.42;;;8.25;;
3891;SDS011;1961;48.194;16.370;2023-04-25T06:22:00;45.35;;;7.85;;
3891;SDS011;1961;48.194;16.370;2023-04-25T06:24:26;43.63;;;7.00;;
3891;SDS011;1961;48.194;16.370;2023-04-25T06:26:53;48.67;;;7.97;;
3891;SDS011;1961;48.194;16.370;2023-04-25T06:29:19;45.67;;;6.57;;
3891;SDS011;1961;48.194;16.370;2023-04-25T06:31:46;43.58;;;6.55;;
3891;SDS011;1961;48.194;16.370;2023-04-25T06:34:12;47.63;;;7.43;;
3891;SDS011;1961;48.194;16.370;2023-04-25T06:36:39;45.00;;;6.75;;
3891;SDS011;1961;48.194;16.370;2023-04-25T06:39:06;43.17;;;6.75;;
3891;SDS011;1961;48.194;16.370;2023-04-25T06:41:34;43.33;;;7.30;;
3891;SDS011;1961;48.194;16.370;2023-04-25T06:44:00;43.80;;;6.57;;
3891;SDS011;1961;48.194;16.370;2023-04-25T06:46:26;45.90;;;7.10;;
3891;SDS011;1961;48.194;16.370;2023-04-25T06:48:53;43.07;;;6.80;;
3891;SDS011;1961;48.194;16.370;2023-04-25T06:51:19;43.87;;;7.10;;
3891;SDS011;1961;48.194;16.370;2023-04-25T06:53:45;44.00;;;6.90;;
3891;SDS011;1961;48.194;16.370;2023-04-25T06:56:12;44.37;;;7.20;;
3891;SDS011;1961;48.194;16.370;2023-04-25T06:58:38;43.00;;;6.40;;
3891;SDS011;1961;48.194;16.370;2023-04-25T07:01:04;44.97;;;6.77;;
3891;SDS011;1961;48.194;16.370;2023-04-25T07:03:30;43.00;;;6.97;;
3891;SDS011;1961;48.194;16.370;2023-04-25T07:05:56;43.73;;;7.37;;
3891;SDS011;1961;48.194;16.370;2023-04-25T07:08:22;46.70;;;9.60;;
3891;SDS011;1961;48.194;16.370;2023-04-25T07:10:48;43.40;;;7.47;;
3891;SDS011;1961;48.194;16.370;2023-04-25T07:13:15;43.77;;;6.63;;
3891;SDS011;1961;48.194;16.370;2023-04-25T07:15:41;46.40;;;7.03;;
3891;SDS011;1961;48.194;16.370;2023-04-25T07:18:09;45.70;;;7.77;;
3891;SDS011;1961;48.194;16.370;2023-04-25T07:20:35;44.70;;;6.83;;
3891;SDS011;1961;48.194;16.370;2023-04-25T07:23:02;42.77;;;6.70;;
3891;SDS011;1961;48.194;16.370;2023-04-25T07:25:28;43.43;;;6.33;;
3891;SDS011;1961;48.194;16.370;2023-04-25T07:27:55;43.30;;;6.33;;
3891;SDS011;1961;48.194;16.370;2023-04-25T07:30:22;46.43;;;5.93;;
3891;SDS011;1961;48.194;16.370;2023-04-25T07:32:48;42.20;;;6.30;;
3891;SDS011;1961;48.194;16.370;2023-04-25T07:35:15;42.63;;;6.70;;
3891;SDS011;1961;48.194;16.370;2023-04-25T07:37:41;43.57;;;6.83;;
3891;SDS011;1961;48.194;16.370;2023-04-25T07:40:07;42.07;;;6.13;;
3891;SDS011;1961;48.194;16.370;2023-04-25T07:42:34;42.27;;;5.80;;
3891;SDS011;1961;48.194;16.370;2023-04-25T07:45:01;43.67;;;6.07;;
3891;SDS011;1961;48.194;16.370;2023-04-25T07:47:28;42.17;;;6.13;;
3891;SDS011;1961;48.194;16.370;2023-04-25T07:49:55;42.20;;;6.33;;
3891;SDS011;1961;48.194;16.370;2023-04-25T07:52:23;42.70;;;6.30;;
3891;SDS011;1961;48.194;16.370;2023-04-25T07:54:49;45.60;;;7.07;;
3891;SDS011;1961;48.194;16.370;2023-04-25T07:57:16;42.53;;;5.83;;
3891;SDS011;1961;48.194;16.370;2023-04-25T07:59:43;42.10;;;6.00;;
3891;SDS011;1961;48.194;16.370;2023-04-25T08:02:09;45.97;;;7.80;;
3891;SDS011;1961;48.194;16.370;2023-04-25T08:04:35;44.33;;;6.03;;
3891;SDS011;1961;48.194;16.370;2023-04-25T08:07:01;42.20;;;6.43;;
3891;SDS011;1961;48.194;16.370;2023-04-25T08:09:28;44.43;;;6.77;;
3891;SDS011;1961;48.194;16.370;2023-04-25T08:11:59;43.37;;;6.40;;
3891;SDS011;1961;48.194;16.370;2023-04-25T08:14:26;43.00;;;6.90;;
3891;SDS011;1961;48.194;16.370;2023-04-25T08:16:52;42.90;;;6.40;;
3891;SDS011;1961;48.194;16.370;2023-04-25T08:19:18;43.47;;;6.87;;
3891;SDS011;1961;48.194;16.370;2023-04-25T08:21:44;42.00;;;6.47;;
3891;SDS011;1961;48.194;16.370;2023-04-25T08:24:10;44.83;;;6.50;;
3891;SDS011;1961;48.194;16.370;2023-04-25T08:26:36;42.97;;;6.27;;
3891;SDS011;1961;48.194;16.370;2023-04-25T08:29:04;42.37;;;6.70;;
3891;SDS011;1961;48.194;16.370;2023-04-25T08:31:31;43.90;;;7.20;;
3891;SDS011;1961;48.194;16.370;2023-04-25T08:33:57;42.60;;;6.07;;
3891;SDS011;1961;48.194;16.370;2023-04-25T08:36:24;44.07;;;6.73;;
3891;SDS011;1961;48.194;16.370;2023-04-25T08:38:50;42.80;;;7.50;;
3891;SDS011;1961;48.194;16.370;2023-04-25T08:41:16;42.77;;;6.50;;
3891;SDS011;1961;48.194;16.370;2023-04-25T08:43:43;45.50;;;7.63;;
3891;SDS011;1961;48.194;16.370;2023-04-25T08:46:10;43.07;;;6.13;;
3891;SDS011;1961;48.194;16.370;2023-04-25T08:48:37;41.93;;;6.00;;
3891;SDS011;1961;48.194;16.370;2023-04-25T08:51:07;42.43;;;5.63;;
3891;SDS011;1961;48.194;16.370;2023-04-25T08:53:33;41.63;;;5.73;;
3891;SDS011;1961;48.194;16.370;2023-04-25T08:56:00;43.67;;;6.20;;
3891;SDS011;1961;48.194;16.370;2023-04-25T08:58:27;41.97;;;6.00;;
3891;SDS011;1961;48.194;16.370;2023-04-25T09:00:53;41.87;;;5.70;;
3891;SDS011;1961;48.194;16.370;2023-04-25T09:03:19;44.17;;;6.10;;
3891;SDS011;1961;48.194;16.370;2023-04-25T09:05:45;42.60;;;6.20;;
3891;SDS011;1961;48.194;16.370;2023-04-25T09:08:11;44.30;;;6.60;;
3891;SDS011;1961;48.194;16.370;2023-04-25T09:10:38;44.57;;;6.40;;
3891;SDS011;1961;48.194;16.370;2023-04-25T09:15:48;43.60;;;6.03;;
3891;SDS011;1961;48.194;16.370;2023-04-25T09:18:36;43.77;;;6.60;;
3891;SDS011;1961;48.194;16.370;2023-04-25T09:21:05;45.17;;;6.10;;
3891;SDS011;1961;48.194;16.370;2023-04-25T09:23:31;42.60;;;5.80;;
3891;SDS011;1961;48.194;16.370;2023-04-25T09:26:05;42.70;;;6.10;;
3891;SDS011;1961;48.194;16.370;2023-04-25T09:28:32;43.57;;;6.40;;
3891;SDS011;1961;48.194;16.370;2023-04-25T09:31:00;44.27;;;6.57;;
3891;SDS011;1961;48.194;16.370;2023-04-25T09:33:31;42.43;;;6.07;;
3891;SDS011;1961;48.194;16.370;2023-04-25T09:38:30;44.00;;;6.70;;
3891;SDS011;1961;48.194;16.370;2023-04-25T09:40:56;42.50;;;5.47;;
3891;SDS011;1961;48.194;16.370;2023-04-25T09:43:23;42.67;;;6.43;;
3891;SDS011;1961;48.194;16.370;2023-04-25T09:45:50;42.57;;;6.80;;
3891;SDS011;1961;48.194;16.370;2023-04-25T09:48:21;43.53;;;6.83;;
3891;SDS011;1961;48.194;16.370;2023-04-25T09:51:03;44.47;;;6.80;;
3891;SDS011;1961;48.194;16.370;2023-04-25T09:53:37;47.30;;;6.10;;
3891;SDS011;1961;48.194;16.370;2023-04-25T09:56:04;43.37;;;6.93;;
3891;SDS011;1961;48.194;16.370;2023-04-25T09:58:32;42.33;;;6.10;;
3891;SDS011;1961;48.194;16.370;2023-04-25T10:01:02;43.90;;;5.70;;
3891;SDS011;1961;48.194;16.370;2023-04-25T10:03:33;40.27;;;4.40;;
3891;SDS011;1961;48.194;16.370;2023-04-25T10:06:01;42.80;;;4.70;;
3891;SDS011;1961;48.194;16.370;2023-04-25T10:08:32;43.80;;;5.70;;
3891;SDS011;1961;48.194;16.370;2023-04-25T10:11:07;42.07;;;4.80;;
3891;SDS011;1961;48.194;16.370;2023-04-25T10:13:34;42.50;;;5.13;;
3891;SDS011;1961;48.194;16.370;2023-04-25T10:16:02;42.00;;;4.77;;
3891;SDS011;1961;48.194;16.370;2023-04-25T10:18:29;41.37;;;4.63;;
3891;SDS011;1961;48.194;16.370;2023-04-25T10:20:56;41.77;;;4.93;;
3891;SDS011;1961;48.194;16.370;2023-04-25T10:23:22;40.87;;;5.00;;
3891;SDS011;1961;48.194;16.370;2023-04-25T10:25:49;43.43;;;5.40;;
3891;SDS011;1961;48.194;16.370;2023-04-25T10:28:16;41.77;;;4.80;;
3891;SDS011;1961;48.194;16.370;2023-04-25T10:30:58;40.53;;;4.70;;
3891;SDS011;1961;48.194;16.370;2023-04-25T10:33:38;41.30;;;5.00;;
3891;SDS011;1961;48.194;16.370;2023-04-25T10:36:18;42.10;;;4.77;;
3891;SDS011;1961;48.194;16.370;2023-04-25T10:38:47;40.30;;;4.43;;
3891;SDS011;1961;48.194;16.370;2023-04-25T10:41:13;41.17;;;4.60;;
3891;SDS011;1961;48.194;16.370;2023-04-25T10:43:40;42.90;;;5.67;;
3891;SDS011;1961;48.194;16.370;2023-04-25T10:46:21;41.37;;;4.77;;
3891;SDS011;1961;48.194;16.370;2023-04-25T10:48:51;41.23;;;5.77;;
3891;SDS011;1961;48.194;16.370;2023-04-25T10:53:44;41.43;;;4.50;;
3891;SDS011;1961;48.194;16.370;2023-04-25T10:56:17;43.07;;;5.00;;
3891;SDS011;1961;48.194;16.370;2023-04-25T10:58:45;42.20;;;5.27;;
3891;SDS011;1961;48.194;16.370;2023-04-25T11:01:12;42.40;;;5.07;;
3891;SDS011;1961;48.194;16.370;2023-04-25T11:03:43;40.50;;;4.37;;
3891;SDS011;1961;48.194;16.370;2023-04-25T11:06:22;41.10;;;4.70;;
3891;SDS011;1961;48.194;16.370;2023-04-25T11:08:50;41.53;;;5.57;;
3891;SDS011;1961;48.194;16.370;2023-04-25T11:11:17;41.40;;;5.03;;
3891;SDS011;1961;48.194;16.370;2023-04-25T11:13:44;41.37;;;5.10;;
3891;SDS011;1961;48.194;16.370;2023-04-25T11:16:13;40.90;;;4.80;;
3891;SDS011;1961;48.194;16.370;2023-04-25T11:18:43;41.30;;;4.87;;
3891;SDS011;1961;48.194;16.370;2023-04-25T11:21:10;42.80;;;5.20;;
3891;SDS011;1961;48.194;16.370;2023-04-25T11:23:37;43.10;;;5.13;;
3891;SDS011;1961;48.194;16.370;2023-04-25T11:26:03;41.47;;;5.40;;
3891;SDS011;1961;48.194;16.370;2023-04-25T11:28:29;42.60;;;5.30;;
3891;SDS011;1961;48.194;16.370;2023-04-25T11:30:56;40.70;;;4.73;;
3891;SDS011;1961;48.194;16.370;2023-04-25T11:33:22;44.70;;;5.53;;
3891;SDS011;1961;48.194;16.370;2023-04-25T11:35:50;46.33;;;5.37;;
3891;SDS011;1961;48.194;16.370;2023-04-25T11:38:16;43.30;;;5.50;;
3891;SDS011;1961;48.194;16.370;2023-04-25T11:40:42;46.60;;;5.37;;
3891;SDS011;1961;48.194;16.370;2023-04-25T11:43:08;41.33;;;5.30;;
3891;SDS011;1961;48.194;16.370;2023-04-25T11:45:36;42.60;;;6.00;;
3891;SDS011;1961;48.194;16.370;2023-04-25T11:48:03;41.17;;;5.07;;
3891;SDS011;1961;48.194;16.370;2023-04-25T11:50:29;41.88;;;5.43;;
3891;SDS011;1961;48.194;16.370;2023-04-25T11:52:56;45.20;;;9.60;;
3891;SDS011;1961;48.194;16.370;2023-04-25T11:55:22;45.23;;;7.07;;
3891;SDS011;1961;48.194;16.370;2023-04-25T11:57:49;42.60;;;6.60;;
3891;SDS011;1961;48.194;16.370;2023-04-25T12:00:16;46.27;;;8.33;;
3891;SDS011;1961;48.194;16.370;2023-04-25T12:02:44;43.30;;;6.10;;
3891;SDS011;1961;48.194;16.370;2023-04-25T12:05:11;46.23;;;7.10;;
3891;SDS011;1961;48.194;16.370;2023-04-25T12:07:37;41.77;;;5.60;;
3891;SDS011;1961;48.194;16.370;2023-04-25T12:10:07;43.07;;;6.57;;
3891;SDS011;1961;48.194;16.370;2023-04-25T12:12:34;43.13;;;5.73;;
3891;SDS011;1961;48.194;16.370;2023-04-25T12:15:14;43.40;;;5.57;;
3891;SDS011;1961;48.194;16.370;2023-04-25T12:17:50;45.10;;;4.97;;
3891;SDS011;1961;48.194;16.370;2023-04-25T12:20:17;44.17;;;6.30;;
3891;SDS011;1961;48.194;16.370;2023-04-25T12:22:46;41.77;;;5.23;;
3891;SDS011;1961;48.194;16.370;2023-04-25T12:28:19;40.47;;;4.23;;
3891;SDS011;1961;48.194;16.370;2023-04-25T12:33:20;40.70;;;4.20;;
3891;SDS011;1961;48.194;16.370;2023-04-25T12:35:47;44.33;;;5.30;;
3891;SDS011;1961;48.194;16.370;2023-04-25T12:40:51;41.40;;;4.70;;
3891;SDS011;1961;48.194;16.370;2023-04-25T12:43:18;40.83;;;4.60;;
3891;SDS011;1961;48.194;16.370;2023-04-25T12:45:45;40.80;;;4.40;;
3891;SDS011;1961;48.194;16.370;2023-04-25T12:48:13;41.83;;;5.73;;
3891;SDS011;1961;48.194;16.370;2023-04-25T12:50:39;40.80;;;4.80;;
3891;SDS011;1961;48.194;16.370;2023-04-25T12:53:06;41.23;;;4.77;;
3891;SDS011;1961;48.194;16.370;2023-04-25T12:55:32;40.33;;;4.40;;
3891;SDS011;1961;48.194;16.370;2023-04-25T12:57:58;41.37;;;4.63;;
3891;SDS011;1961;48.194;16.370;2023-04-25T13:00:24;41.27;;;5.10;;
3891;SDS011;1961;48.194;16.370;2023-04-25T13:02:51;42.80;;;5.30;;
3891;SDS011;1961;48.194;16.370;2023-04-25T13:05:18;40.70;;;4.70;;
3891;SDS011;1961;48.194;16.370;2023-04-25T13:07:44;42.83;;;5.00;;
3891;SDS011;1961;48.194;16.370;2023-04-25T13:10:10;40.37;;;4.63;;
3891;SDS011;1961;48.194;16.370;2023-04-25T13:12:37;44.10;;;6.10;;
3891;SDS011;1961;48.194;16.370;2023-04-25T13:15:03;42.37;;;4.77;;
3891;SDS011;1961;48.194;16.370;2023-04-25T13:17:30;44.67;;;5.07;;
3891;SDS011;1961;48.194;16.370;2023-04-25T13:19:56;40.97;;;4.70;;
3891;SDS011;1961;48.194;16.370;2023-04-25T13:22:22;41.03;;;4.23;;
3891;SDS011;1961;48.194;16.370;2023-04-25T13:24:48;45.00;;;5.70;;
3891;SDS011;1961;48.194;16.370;2023-04-25T13:27:14;41.03;;;4.50;;
3891;SDS011;1961;48.194;16.370;2023-04-25T13:29:41;41.27;;;4.90;;
3891;SDS011;1961;48.194;16.370;2023-04-25T13:32:08;43.70;;;4.43;;
3891;SDS011;1961;48.194;16.370;2023-04-25T13:34:35;41.90;;;6.10;;
3891;SDS011;1961;48.194;16.370;2023-04-25T13:37:03;44.17;;;4.90;;
3891;SDS011;1961;48.194;16.370;2023-04-25T13:39:30;42.70;;;3.90;;
3891;SDS011;1961;48.194;16.370;2023-04-25T13:41:56;40.03;;;4.00;;
3891;SDS011;1961;48.194;16.370;2023-04-25T13:44:22;41.17;;;3.97;;
3891;SDS011;1961;48.194;16.370;2023-04-25T13:46:48;44.03;;;5.40;;
3891;SDS011;1961;48.194;16.370;2023-04-25T13:49:15;42.90;;;4.40;;
3891;SDS011;1961;48.194;16.370;2023-04-25T13:51:41;40.97;;;4.13;;
3891;SDS011;1961;48.194;16.370;2023-04-25T13:54:07;40.77;;;4.33;;
3891;SDS011;1961;48.194;16.370;2023-04-25T13:56:34;40.10;;;4.30;;
3891;SDS011;1961;48.194;16.370;2023-04-25T13:59:00;41.20;;;4.43;;
3891;SDS011;1961;48.194;16.370;2023-04-25T14:01:26;40.70;;;4.60;;
3891;SDS011;1961;48.194;16.370;2023-04-25T14:03:53;41.53;;;4.00;;
3891;SDS011;1961;48.194;16.370;2023-04-25T14:06:19;40.37;;;4.23;;
3891;SDS011;1961;48.194;16.370;2023-04-25T14:08:48;40.90;;;4.30;;
3891;SDS011;1961;48.194;16.370;2023-04-25T14:11:15;41.07;;;4.30;;
3891;SDS011;1961;48.194;16.370;2023-04-25T14:13:43;43.70;;;5.23;;
3891;SDS011;1961;48.194;16.370;2023-04-25T14:16:10;41.77;;;4.50;;
3891;SDS011;1961;48.194;16.370;2023-04-25T14:18:36;42.60;;;4.30;;
3891;SDS011;1961;48.194;16.370;2023-04-25T14:21:02;40.73;;;4.20;;
3891;SDS011;1961;48.194;16.370;2023-04-25T14:23:29;42.83;;;4.40;;
3891;SDS011;1961;48.194;16.370;2023-04-25T14:25:56;40.57;;;4.47;;
3891;SDS011;1961;48.194;16.370;2023-04-25T14:28:22;40.27;;;4.00;;
3891;SDS011;1961;48.194;16.370;2023-04-25T14:30:48;40.40;;;4.20;;
3891;SDS011;1961;48.194;16.370;2023-04-25T14:33:14;40.17;;;4.07;;
3891;SDS011;1961;48.194;16.370;2023-04-25T14:35:41;40.40;;;4.17;;
3891;SDS011;1961;48.194;16.370;2023-04-25T14:38:07;42.70;;;3.90;;
3891;SDS011;1961;48.194;16.370;2023-04-25T14:40:33;41.03;;;4.40;;
3891;SDS011;1961;48.194;16.370;2023-04-25T14:43:00;41.20;;;4.87;;
3891;SDS011;1961;48.194;16.370;2023-04-25T14:45:26;41.43;;;4.70;;
3891;SDS011;1961;48.194;16.370;2023-04-25T14:47:52;41.80;;;4.50;;
3891;SDS011;1961;48.194;16.370;2023-04-25T14:50:18;42.47;;;4.60;;
3891;SDS011;1961;48.194;16.370;2023-04-25T14:52:44;40.20;;;4.20;;
3891;SDS011;1961;48.194;16.370;2023-04-25T14:55:11;40.67;;;4.20;;
3891;SDS011;1961;48.194;16.370;2023-04-25T14:57:37;42.90;;;4.57;;
3891;SDS011;1961;48.194;16.370;2023-04-25T15:00:04;41.07;;;4.40;;
3891;SDS011;1961;48.194;16.370;2023-04-25T15:02:35;41.27;;;4.90;;